createdAt,value
2023-05-04T00:01:52.618Z,6.34
2023-05-04T00:06:55.888Z,9.60
2023-05-04T00:11:58.781Z,7.72
2023-05-04T00:17:03.391Z,5.98
2023-05-04T00:22:06.405Z,4.99
2023-05-04T00:27:10.349Z,7.36
2023-05-04T00:32:13.320Z,9.21
2023-05-04T00:37:16.412Z,6.95
2023-05-04T00:42:19.347Z,5.63
2023-05-04T00:47:23.277Z,4.83
2023-05-04T00:52:27.837Z,5.82
2023-05-04T00:57:30.890Z,9.27
2023-05-04T01:02:33.881Z,7.82
2023-05-04T01:08:09.367Z,6.10
2023-05-04T01:13:14.155Z,5.17
2023-05-04T01:18:17.259Z,6.24
2023-05-04T01:23:21.137Z,9.75
2023-05-04T01:28:58.015Z,8.30
2023-05-04T01:34:01.629Z,6.49
2023-05-04T01:39:04.663Z,5.58
2023-05-04T01:44:07.575Z,4.92
2023-05-04T01:49:10.587Z,4.35
2023-05-04T01:54:13.383Z,5.57
2023-05-04T01:59:16.226Z,9.47
2023-05-04T02:04:19.039Z,9.05
2023-05-04T02:09:21.857Z,7.04
2023-05-04T02:14:24.781Z,6.03
2023-05-04T02:19:27.947Z,5.32
2023-05-04T02:24:30.786Z,6.29
2023-05-04T02:29:33.663Z,9.83
2023-05-04T02:34:37.066Z,8.61
2023-05-04T02:39:40.028Z,6.71
2023-05-04T02:44:42.847Z,5.69
2023-05-04T02:49:45.726Z,4.99
2023-05-04T02:54:48.527Z,4.46
2023-05-04T02:59:52.209Z,4.06
2023-05-04T03:04:55.150Z,5.57
2023-05-04T03:09:57.969Z,9.71
2023-05-04T03:15:00.917Z,9.88
2023-05-04T03:20:04.440Z,7.60
2023-05-04T03:25:08.007Z,6.32
2023-05-04T03:30:11.858Z,5.54
2023-05-04T03:35:15.085Z,4.96
2023-05-04T03:40:22.517Z,4.55
2023-05-04T03:45:28.636Z,4.24
2023-05-04T03:50:32.137Z,5.86
2023-05-04T03:55:35.229Z,10.16
2023-05-04T04:00:38.074Z,10.35
2023-05-04T04:05:40.931Z,8.14
2023-05-04T04:10:43.813Z,7.19
2023-05-04T04:15:47.052Z,10.19
2023-05-04T04:20:50.653Z,10.73
2023-05-04T04:25:54.128Z,8.60
2023-05-04T04:30:57.133Z,7.43
2023-05-04T04:36:00.146Z,6.81
2023-05-04T04:41:03.450Z,6.42
2023-05-04T04:46:06.199Z,7.97
2023-05-04T04:51:12.458Z,11.71
2023-05-04T04:56:17.559Z,10.49
2023-05-04T05:01:20.468Z,8.98
2023-05-04T05:06:24.158Z,8.38
2023-05-04T05:11:27.025Z,8.13
2023-05-04T05:16:29.991Z,7.99
2023-05-04T05:21:32.825Z,7.99
2023-05-04T05:26:36.109Z,8.08
2023-05-04T05:31:38.946Z,8.16
2023-05-04T05:36:41.915Z,8.23
2023-05-04T05:41:44.752Z,8.29
2023-05-04T05:46:47.757Z,8.47
2023-05-04T05:51:50.612Z,8.73
2023-05-04T05:56:57.180Z,9.05
2023-05-04T06:02:02.305Z,9.33
2023-05-04T06:19:39.848Z,10.22
2023-05-04T06:36:42.190Z,11.16
2023-05-04T06:42:07.322Z,11.21
2023-05-04T06:47:26.366Z,11.26
2023-05-04T06:52:37.459Z,11.35
2023-05-04T06:59:12.431Z,11.46
2023-05-04T07:26:41.612Z,12.56
2023-05-04T07:31:49.370Z,12.88
2023-05-04T07:36:56.168Z,13.17
2023-05-04T07:42:02.696Z,13.34
2023-05-04T07:47:06.767Z,13.54
2023-05-04T07:52:20.027Z,13.67
2023-05-04T08:03:00.008Z,13.84
2023-05-04T08:08:03.221Z,13.88
2023-05-04T08:13:06.226Z,13.89
2023-05-04T08:18:15.838Z,14.01
2023-05-04T08:23:20.517Z,14.23
2023-05-04T08:28:23.664Z,14.42
2023-05-04T08:33:26.668Z,14.75
2023-05-04T08:38:29.973Z,14.92
2023-05-04T08:43:37.012Z,15.13
2023-05-04T08:48:39.899Z,15.39
2023-05-04T08:53:47.861Z,15.82
2023-05-04T08:58:51.823Z,15.96
2023-05-04T09:03:55.072Z,15.93
2023-05-04T09:08:58.292Z,16.06
2023-05-04T09:14:01.377Z,16.43
2023-05-04T09:19:05.403Z,16.80
2023-05-04T09:24:09.038Z,17.03
2023-05-04T09:29:15.693Z,17.00
2023-05-04T09:34:22.415Z,16.82
2023-05-04T09:39:25.839Z,16.36
2023-05-04T09:44:29.938Z,16.10
2023-05-04T09:49:34.176Z,15.99
2023-05-04T09:54:41.540Z,15.93
2023-05-04T09:59:44.415Z,16.07
2023-05-04T10:04:50.815Z,16.34
2023-05-04T10:09:53.865Z,16.76
2023-05-04T10:14:57.052Z,17.02
2023-05-04T10:20:09.111Z,16.90
2023-05-04T10:25:30.996Z,16.62
2023-05-04T10:30:33.930Z,16.31
2023-05-04T10:35:37.966Z,16.01
2023-05-04T10:40:41.200Z,15.88
2023-05-04T10:45:44.186Z,16.00
2023-05-04T10:50:49.716Z,16.15
2023-05-04T10:55:52.652Z,16.39
2023-05-04T11:00:56.072Z,16.61
2023-05-04T11:05:59.049Z,16.81
2023-05-04T11:11:07.073Z,17.00
2023-05-04T11:16:12.614Z,17.10
2023-05-04T11:21:35.739Z,17.34
2023-05-04T11:26:49.164Z,17.61
2023-05-04T11:31:55.892Z,17.87
2023-05-04T11:37:06.101Z,18.00
2023-05-04T11:42:12.574Z,18.07
2023-05-04T11:47:16.295Z,18.02
2023-05-04T11:52:24.400Z,17.91
2023-05-04T11:57:27.255Z,17.92
2023-05-04T12:02:30.144Z,18.21
2023-05-04T12:07:36.906Z,18.39
2023-05-04T12:12:39.866Z,18.54
2023-05-04T12:17:44.141Z,18.63
2023-05-04T12:22:47.044Z,18.65
2023-05-04T12:27:50.631Z,18.74
2023-05-04T12:32:53.475Z,18.83
2023-05-04T12:38:01.175Z,18.88
2023-05-04T12:43:09.092Z,18.96
2023-05-04T12:48:13.324Z,19.03
2023-05-04T12:53:17.049Z,19.05
2023-05-04T12:58:19.953Z,19.06
2023-05-04T13:03:23.539Z,18.90
2023-05-04T13:08:26.444Z,18.63
2023-05-04T13:13:29.941Z,18.76
2023-05-04T13:18:33.572Z,18.89
2023-05-04T13:23:36.395Z,18.87
2023-05-04T13:28:39.576Z,18.84
2023-05-04T13:33:44.851Z,18.81
2023-05-04T13:38:47.769Z,18.68
2023-05-04T13:43:50.619Z,18.68
2023-05-04T13:48:55.119Z,18.77
2023-05-04T13:54:01.129Z,18.62
2023-05-04T13:59:05.541Z,18.29
2023-05-04T14:04:08.947Z,18.25
2023-05-04T14:09:11.830Z,18.41
2023-05-04T14:14:14.747Z,18.63
2023-05-04T14:19:17.674Z,18.84
2023-05-04T14:24:20.636Z,18.95
2023-05-04T14:29:23.442Z,19.10
2023-05-04T14:34:29.240Z,19.25
2023-05-04T14:39:32.127Z,19.19
2023-05-04T14:44:35.011Z,18.91
2023-05-04T14:49:42.720Z,18.73
2023-05-04T14:54:45.857Z,18.35
2023-05-04T14:59:48.705Z,18.21
2023-05-04T15:04:51.654Z,18.17
2023-05-04T15:09:54.884Z,18.14
2023-05-04T15:14:57.673Z,17.96
2023-05-04T15:20:02.293Z,17.69
2023-05-04T15:25:05.892Z,17.42
2023-05-04T15:30:09.418Z,17.29
2023-05-04T15:35:12.495Z,17.27
2023-05-04T15:40:15.418Z,17.33
2023-05-04T15:45:18.770Z,17.45
2023-05-04T15:50:21.829Z,17.53
2023-05-04T15:55:26.324Z,17.64
2023-05-04T16:00:29.767Z,17.74
2023-05-04T16:05:32.586Z,17.79
2023-05-04T16:10:36.313Z,17.77
2023-05-04T16:15:39.666Z,17.76
2023-05-04T16:20:42.510Z,17.70
2023-05-04T16:25:45.437Z,17.62
2023-05-04T16:30:51.537Z,17.43
2023-05-04T16:35:54.544Z,17.16
2023-05-04T16:40:57.363Z,16.90
2023-05-04T16:46:00.196Z,16.58
2023-05-04T16:51:05.195Z,16.17
2023-05-04T16:56:08.376Z,15.87
2023-05-04T17:01:11.547Z,15.64
2023-05-04T17:06:14.509Z,15.43
2023-05-04T17:11:17.390Z,15.23
2023-05-04T17:16:20.150Z,15.08
2023-05-04T17:21:23.012Z,14.93
2023-05-04T17:26:25.838Z,14.84
2023-05-04T17:31:28.741Z,14.64
2023-05-04T17:36:32.381Z,14.39
2023-05-04T17:41:35.280Z,14.17
2023-05-04T17:46:38.228Z,13.92
2023-05-04T17:51:41.630Z,13.66
2023-05-04T17:56:44.420Z,13.42
2023-05-04T18:01:47.527Z,13.18
2023-05-04T18:06:51.028Z,12.96
2023-05-04T18:11:53.978Z,12.78
2023-05-04T18:16:56.895Z,12.61
2023-05-04T18:21:59.814Z,12.47
2023-05-04T18:27:02.748Z,12.35
2023-05-04T18:32:08.220Z,12.23
2023-05-04T18:37:11.648Z,12.14
2023-05-04T18:42:14.542Z,12.05
2023-05-04T18:47:17.392Z,11.97
2023-05-04T18:52:20.711Z,11.88
2023-05-04T18:57:23.766Z,11.81
2023-05-04T19:02:27.126Z,11.74
2023-05-04T19:07:30.039Z,11.69
2023-05-04T19:12:32.965Z,11.65
2023-05-04T19:17:36.149Z,11.62
2023-05-04T19:22:39.047Z,11.57
2023-05-04T19:27:41.976Z,11.52
2023-05-04T19:32:44.860Z,11.48
2023-05-04T19:37:49.558Z,11.43
2023-05-04T19:42:52.367Z,11.36
2023-05-04T19:47:55.199Z,11.30
2023-05-04T19:52:58.072Z,11.23
2023-05-04T19:58:01.164Z,11.16
2023-05-04T20:03:04.331Z,11.08
2023-05-04T20:08:07.215Z,10.99
2023-05-04T20:13:10.089Z,10.91
2023-05-04T20:18:13.417Z,10.82
2023-05-04T20:23:16.811Z,10.76
2023-05-04T20:28:19.655Z,10.69
2023-05-04T20:33:22.546Z,10.64
2023-05-04T20:38:26.217Z,10.57
2023-05-04T20:43:28.931Z,10.51
2023-05-04T20:48:32.043Z,10.47
2023-05-04T20:53:37.321Z,10.40
2023-05-04T20:58:40.556Z,10.35
2023-05-04T21:03:43.353Z,10.29
2023-05-04T21:08:46.280Z,10.22
2023-05-04T21:13:49.137Z,10.15
2023-05-04T21:18:52.045Z,10.08
2023-05-04T21:23:54.866Z,10.00
2023-05-04T21:28:57.662Z,9.91
2023-05-04T21:34:00.594Z,9.84
2023-05-04T21:39:03.807Z,9.77
2023-05-04T21:44:06.669Z,9.71
2023-05-04T21:49:09.460Z,9.64
2023-05-04T21:54:12.271Z,9.58
2023-05-04T21:59:15.438Z,9.52
2023-05-04T22:04:18.215Z,9.46
2023-05-04T22:09:21.127Z,9.43
2023-05-04T22:14:23.871Z,9.39
2023-05-04T22:19:26.846Z,9.33
2023-05-04T22:24:29.729Z,9.27
2023-05-04T22:29:34.929Z,9.22
2023-05-04T22:34:37.786Z,9.17
2023-05-04T22:39:40.613Z,9.12
2023-05-04T22:44:43.416Z,9.08
2023-05-04T22:49:46.171Z,9.04
2023-05-04T22:54:49.434Z,8.97
2023-05-04T22:59:52.156Z,8.88
2023-05-04T23:04:55.076Z,8.80
2023-05-04T23:09:58.054Z,10.77
2023-05-04T23:15:00.871Z,13.57
2023-05-04T23:20:09.229Z,12.01
2023-05-04T23:25:12.301Z,10.55
2023-05-04T23:30:15.786Z,9.76
2023-05-04T23:35:18.664Z,9.24
2023-05-04T23:40:21.803Z,8.89
2023-05-04T23:45:24.726Z,8.64
2023-05-04T23:50:27.559Z,8.48
2023-05-04T23:55:30.411Z,9.96
